BEL5RH EBBR-HKJK
Flight info
| Callsign | BEL5RH |
|---|---|
| Flight time | N/A |
| Altitude | 35000 |
| Route | ROUSY DCT GTQ DCT POGOL DCT LASAT DCT MOROK DCT GILIR DCT GEVEA DCT KOGAS DCT VEVAR DCT BARSO DCT KOLON DCT RARQU DCT NESUL DCT ETOIL DCT CIRTA UM2 AMIRA/N0477F370 UM2 DJA/N0471F390 UB730 DIR UG862 BUN UT325 SIPKI UW325 NN UL433 NAKAT NAKAT4A |
| Aircraft | A333/H-SDE3GHIJ2J3J5M1RVWXY/LB2D1 |
Departure
| Time | 2026-05-07 19:52 |
|---|---|
| Airport | Brussels Airport (EBBR) |
Arrival
| Time | N/A |
|---|---|
| Airport | Jomo Kenyatta International Airport (HKJK) |
| Time | Latitude | Longitude | Altitude | Speed | Heading |
|---|---|---|---|---|---|
| 2026-05-07 18:56 | 50.90463 | 4.48720 | 125 ft | 0 kts | 156° |
| 2026-05-07 18:57 | 50.90463 | 4.48719 | 125 ft | 0 kts | 156° |
| 2026-05-07 19:01 | 50.90464 | 4.48719 | 125 ft | 0 kts | 155° |
| 2026-05-07 19:04 | 50.90464 | 4.48718 | 125 ft | 0 kts | 155° |
| 2026-05-07 19:07 | 50.90465 | 4.48718 | 125 ft | 0 kts | 155° |
| 2026-05-07 19:09 | 50.90465 | 4.48717 | 125 ft | 0 kts | 155° |
| 2026-05-07 19:12 | 50.90466 | 4.48717 | 124 ft | 0 kts | 155° |
| 2026-05-07 19:15 | 50.90466 | 4.48716 | 124 ft | 0 kts | 155° |
| 2026-05-07 19:15 | 50.90467 | 4.48716 | 124 ft | 0 kts | 155° |
| 2026-05-07 19:20 | 50.90467 | 4.48715 | 124 ft | 0 kts | 155° |
| 2026-05-07 19:20 | 50.90468 | 4.48715 | 124 ft | 0 kts | 155° |
| 2026-05-07 19:22 | 50.90469 | 4.48715 | 124 ft | 0 kts | 155° |
| 2026-05-07 19:22 | 50.90474 | 4.48711 | 124 ft | 1 kts | 155° |
| 2026-05-07 19:22 | 50.90477 | 4.48708 | 124 ft | 0 kts | 155° |
| 2026-05-07 19:23 | 50.90461 | 4.48721 | 125 ft | 0 kts | 155° |
| 2026-05-07 19:25 | 50.90461 | 4.48720 | 125 ft | 0 kts | 155° |
| 2026-05-07 19:27 | 50.90462 | 4.48720 | 125 ft | 0 kts | 155° |
| 2026-05-07 19:30 | 50.90462 | 4.48719 | 125 ft | 0 kts | 155° |
| 2026-05-07 19:30 | 50.90463 | 4.48719 | 125 ft | 0 kts | 155° |
| 2026-05-07 19:34 | 50.90478 | 4.48708 | 124 ft | 2 kts | 155° |
| 2026-05-07 19:34 | 50.90492 | 4.48698 | 123 ft | 2 kts | 155° |
| 2026-05-07 19:35 | 50.90501 | 4.48691 | 122 ft | 0 kts | 155° |
| 2026-05-07 19:35 | 50.90514 | 4.48680 | 121 ft | 2 kts | 129° |
| 2026-05-07 19:35 | 50.90521 | 4.48659 | 121 ft | 2 kts | 100° |
| 2026-05-07 19:35 | 50.90521 | 4.48635 | 120 ft | 2 kts | 72° |
| 2026-05-07 19:36 | 50.90519 | 4.48625 | 120 ft | 1 kts | 65° |
| 2026-05-07 19:36 | 50.90518 | 4.48622 | 120 ft | 0 kts | 65° |
| 2026-05-07 19:41 | 50.90519 | 4.48628 | 120 ft | 2 kts | 65° |
| 2026-05-07 19:41 | 50.90535 | 4.48683 | 120 ft | 9 kts | 66° |
| 2026-05-07 19:42 | 50.90572 | 4.48815 | 122 ft | 16 kts | 66° |
| 2026-05-07 19:42 | 50.90617 | 4.48972 | 124 ft | 15 kts | 66° |
| 2026-05-07 19:42 | 50.90662 | 4.49127 | 124 ft | 15 kts | 66° |
| 2026-05-07 19:42 | 50.90703 | 4.49272 | 125 ft | 13 kts | 65° |
| 2026-05-07 19:43 | 50.90743 | 4.49409 | 123 ft | 14 kts | 66° |
| 2026-05-07 19:43 | 50.90749 | 4.49429 | 123 ft | 2 kts | 66° |
| 2026-05-07 19:43 | 50.90755 | 4.49448 | 123 ft | 0 kts | 66° |
| 2026-05-07 19:44 | 50.90760 | 4.49467 | 123 ft | 6 kts | 66° |
| 2026-05-07 19:45 | 50.90792 | 4.49580 | 120 ft | 14 kts | 66° |
| 2026-05-07 19:45 | 50.90841 | 4.49732 | 118 ft | 15 kts | 44° |
| 2026-05-07 19:45 | 50.90864 | 4.49753 | 117 ft | 0 kts | 22° |
| 2026-05-07 19:47 | 50.90897 | 4.49770 | 116 ft | 9 kts | 20° |
| 2026-05-07 19:47 | 50.90913 | 4.49781 | 115 ft | 2 kts | 27° |
| 2026-05-07 19:47 | 50.90939 | 4.49808 | 114 ft | 7 kts | 36° |
| 2026-05-07 19:47 | 50.90998 | 4.49876 | 112 ft | 10 kts | 33° |
| 2026-05-07 19:48 | 50.91021 | 4.49895 | 111 ft | 0 kts | 27° |
| 2026-05-07 19:50 | 50.91061 | 4.49926 | 110 ft | 13 kts | 24° |
| 2026-05-07 19:50 | 50.91130 | 4.49873 | 109 ft | 5 kts | 264° |
| 2026-05-07 19:51 | 50.91118 | 4.49810 | 109 ft | 9 kts | 247° |
| 2026-05-07 19:51 | 50.91003 | 4.49411 | 112 ft | 78 kts | 245° |
| 2026-05-07 19:51 | 50.90669 | 4.48257 | 112 ft | 148 kts | 245° |
| 2026-05-07 19:51 | 50.90164 | 4.46495 | 284 ft | 189 kts | 248° |
| 2026-05-07 19:52 | 50.89636 | 4.44633 | 1076 ft | 178 kts | 246° |
| 2026-05-07 19:52 | 50.89124 | 4.42850 | 1441 ft | 181 kts | 245° |
| 2026-05-07 19:52 | 50.88594 | 4.41007 | 1733 ft | 189 kts | 246° |
| 2026-05-07 19:52 | 50.87768 | 4.39365 | 1879 ft | 200 kts | 210° |
| 2026-05-07 19:53 | 50.86405 | 4.38823 | 2058 ft | 209 kts | 171° |
| 2026-05-07 19:53 | 50.85027 | 4.39739 | 2264 ft | 223 kts | 135° |
| 2026-05-07 19:53 | 50.84199 | 4.41828 | 2639 ft | 234 kts | 104° |
| 2026-05-07 19:53 | 50.84074 | 4.44479 | 3046 ft | 248 kts | 95° |
| 2026-05-07 19:54 | 50.83613 | 4.47140 | 3631 ft | 256 kts | 112° |
| 2026-05-07 19:54 | 50.82849 | 4.49690 | 4336 ft | 259 kts | 122° |
| 2026-05-07 19:54 | 50.81699 | 4.51932 | 5007 ft | 263 kts | 130° |
| 2026-05-07 19:54 | 50.80499 | 4.54134 | 5714 ft | 266 kts | 131° |
| 2026-05-07 19:55 | 50.79275 | 4.56352 | 6385 ft | 269 kts | 131° |
| 2026-05-07 19:55 | 50.78040 | 4.58584 | 6968 ft | 275 kts | 131° |
| 2026-05-07 19:55 | 50.76756 | 4.60902 | 6965 ft | 278 kts | 131° |
| 2026-05-07 19:55 | 50.75492 | 4.63177 | 6976 ft | 274 kts | 131° |
| 2026-05-07 19:56 | 50.74228 | 4.65453 | 7013 ft | 277 kts | 131° |
| 2026-05-07 19:56 | 50.72925 | 4.67798 | 7628 ft | 281 kts | 131° |
| 2026-05-07 19:56 | 50.71642 | 4.70064 | 8412 ft | 278 kts | 138° |
| 2026-05-07 19:56 | 50.70128 | 4.71970 | 8997 ft | 284 kts | 142° |
| 2026-05-07 19:57 | 50.68561 | 4.73899 | 9638 ft | 286 kts | 143° |
| 2026-05-07 19:57 | 50.66973 | 4.75834 | 10280 ft | 289 kts | 143° |
| 2026-05-07 19:57 | 50.65346 | 4.77812 | 10626 ft | 304 kts | 143° |
| 2026-05-07 19:57 | 50.63595 | 4.79941 | 10830 ft | 322 kts | 143° |
| 2026-05-07 19:58 | 50.61777 | 4.82147 | 11057 ft | 340 kts | 143° |
| 2026-05-07 19:58 | 50.59844 | 4.84490 | 11267 ft | 358 kts | 143° |
| 2026-05-07 19:58 | 50.57861 | 4.86892 | 11747 ft | 366 kts | 143° |
| 2026-05-07 19:58 | 50.55827 | 4.89354 | 12427 ft | 368 kts | 143° |
| 2026-05-07 19:59 | 50.53790 | 4.91814 | 13010 ft | 371 kts | 143° |
| 2026-05-07 19:59 | 50.51723 | 4.94309 | 13644 ft | 375 kts | 143° |
| 2026-05-07 19:59 | 50.49629 | 4.96832 | 14206 ft | 379 kts | 143° |
| 2026-05-07 19:59 | 50.47554 | 4.99330 | 14771 ft | 382 kts | 143° |
| 2026-05-07 20:00 | 50.45431 | 5.01882 | 15326 ft | 386 kts | 143° |
| 2026-05-07 20:00 | 50.43279 | 5.04469 | 15858 ft | 389 kts | 143° |
| 2026-05-07 20:00 | 50.41114 | 5.07066 | 16406 ft | 392 kts | 143° |
| 2026-05-07 20:00 | 50.38932 | 5.09680 | 16950 ft | 395 kts | 143° |
| 2026-05-07 20:01 | 50.36728 | 5.12319 | 17456 ft | 398 kts | 143° |
| 2026-05-07 20:01 | 50.34512 | 5.14970 | 17964 ft | 401 kts | 143° |
| 2026-05-07 20:01 | 50.32299 | 5.17612 | 18453 ft | 404 kts | 143° |
| 2026-05-07 20:01 | 50.30030 | 5.20319 | 18952 ft | 408 kts | 143° |
| 2026-05-07 20:02 | 50.27784 | 5.22996 | 19417 ft | 411 kts | 143° |
| 2026-05-07 20:02 | 50.25473 | 5.25746 | 19862 ft | 414 kts | 143° |
| 2026-05-07 20:02 | 50.23191 | 5.28458 | 20317 ft | 417 kts | 144° |
| 2026-05-07 20:02 | 50.20849 | 5.31238 | 20769 ft | 420 kts | 144° |
| 2026-05-07 20:03 | 50.18524 | 5.33994 | 21214 ft | 422 kts | 144° |
| 2026-05-07 20:03 | 50.16168 | 5.36784 | 21650 ft | 425 kts | 144° |
| 2026-05-07 20:03 | 50.13799 | 5.39585 | 22072 ft | 427 kts | 144° |
| 2026-05-07 20:03 | 50.11425 | 5.42388 | 22495 ft | 429 kts | 144° |
| 2026-05-07 20:04 | 50.09028 | 5.45214 | 22912 ft | 431 kts | 144° |
| 2026-05-07 20:04 | 50.06625 | 5.48046 | 23308 ft | 434 kts | 144° |
| 2026-05-07 20:04 | 50.04194 | 5.50906 | 23680 ft | 436 kts | 144° |
| 2026-05-07 20:04 | 50.01762 | 5.53762 | 24042 ft | 439 kts | 144° |
| 2026-05-07 20:05 | 49.99311 | 5.56639 | 24396 ft | 442 kts | 144° |
| 2026-05-07 20:05 | 49.96845 | 5.59529 | 24748 ft | 445 kts | 144° |
| 2026-05-07 20:05 | 49.94386 | 5.62406 | 25104 ft | 447 kts | 144° |
| 2026-05-07 20:05 | 49.91882 | 5.65332 | 25454 ft | 449 kts | 145° |
| 2026-05-07 20:06 | 49.89359 | 5.68278 | 25808 ft | 452 kts | 145° |
| 2026-05-07 20:06 | 49.86824 | 5.71232 | 26137 ft | 454 kts | 145° |
| 2026-05-07 20:06 | 49.84289 | 5.74184 | 26484 ft | 456 kts | 145° |
| 2026-05-07 20:06 | 49.81752 | 5.77133 | 26837 ft | 458 kts | 145° |
| 2026-05-07 20:07 | 49.79183 | 5.80116 | 27161 ft | 461 kts | 145° |
| 2026-05-07 20:07 | 49.76589 | 5.83123 | 27489 ft | 463 kts | 145° |
| 2026-05-07 20:07 | 49.73999 | 5.86120 | 27799 ft | 465 kts | 145° |
| 2026-05-07 20:07 | 49.71400 | 5.89125 | 28113 ft | 467 kts | 145° |
| 2026-05-07 20:08 | 49.68753 | 5.92182 | 28407 ft | 469 kts | 145° |
| 2026-05-07 20:08 | 49.66098 | 5.95243 | 28706 ft | 471 kts | 145° |
| 2026-05-07 20:08 | 49.63466 | 5.98274 | 28974 ft | 473 kts | 145° |
| 2026-05-07 20:08 | 49.60796 | 6.01343 | 29190 ft | 477 kts | 145° |
| 2026-05-07 20:09 | 49.58113 | 6.04423 | 29459 ft | 478 kts | 145° |
| 2026-05-07 20:09 | 49.55450 | 6.07477 | 29833 ft | 477 kts | 145° |
| 2026-05-07 20:09 | 49.52794 | 6.10518 | 30222 ft | 476 kts | 145° |
| 2026-05-07 20:10 | 49.47426 | 6.16651 | 30917 ft | 475 kts | 145° |
| 2026-05-07 20:10 | 49.44791 | 6.19656 | 31256 ft | 474 kts | 145° |
| 2026-05-07 20:10 | 49.42121 | 6.22695 | 31551 ft | 474 kts | 145° |
| 2026-05-07 20:10 | 49.39452 | 6.25730 | 31847 ft | 473 kts | 145° |
| 2026-05-07 20:11 | 49.36797 | 6.28746 | 32148 ft | 473 kts | 145° |
| 2026-05-07 20:11 | 49.34169 | 6.31724 | 32423 ft | 472 kts | 145° |
| 2026-05-07 20:11 | 49.31534 | 6.34709 | 32701 ft | 472 kts | 145° |
| 2026-05-07 20:11 | 49.28873 | 6.37718 | 32965 ft | 471 kts | 145° |
| 2026-05-07 20:12 | 49.26223 | 6.40711 | 33238 ft | 470 kts | 145° |
| 2026-05-07 20:12 | 49.23594 | 6.43675 | 33494 ft | 470 kts | 145° |
| 2026-05-07 20:12 | 49.20948 | 6.46656 | 33719 ft | 470 kts | 145° |
| 2026-05-07 20:12 | 49.18314 | 6.49619 | 33962 ft | 469 kts | 145° |
| 2026-05-07 20:13 | 49.15673 | 6.52584 | 34203 ft | 469 kts | 145° |
| 2026-05-07 20:13 | 49.13036 | 6.55542 | 34407 ft | 469 kts | 145° |
| 2026-05-07 20:13 | 49.10403 | 6.58491 | 34613 ft | 469 kts | 145° |
| 2026-05-07 20:13 | 49.07776 | 6.61430 | 34815 ft | 468 kts | 146° |
| 2026-05-07 20:14 | 49.05162 | 6.64350 | 34966 ft | 468 kts | 146° |
| 2026-05-07 20:14 | 48.99770 | 6.69737 | 35011 ft | 456 kts | 160° |
| 2026-05-07 20:14 | 48.96780 | 6.71168 | 35052 ft | 455 kts | 172° |
| 2026-05-07 20:15 | 48.93643 | 6.71586 | 35038 ft | 454 kts | 184° |
| 2026-05-07 20:15 | 48.87272 | 6.71195 | 35041 ft | 462 kts | 185° |
| 2026-05-07 20:16 | 48.80792 | 6.70923 | 35045 ft | 467 kts | 184° |
| 2026-05-07 20:16 | 48.74301 | 6.70670 | 35032 ft | 463 kts | 184° |
| 2026-05-07 20:17 | 48.67892 | 6.70421 | 35039 ft | 459 kts | 185° |
| 2026-05-07 20:17 | 48.61475 | 6.70168 | 35043 ft | 461 kts | 185° |
| 2026-05-07 20:18 | 48.55072 | 6.69923 | 35029 ft | 461 kts | 185° |
| 2026-05-07 20:18 | 48.48645 | 6.69673 | 35033 ft | 461 kts | 185° |
| 2026-05-07 20:19 | 48.42254 | 6.69426 | 35038 ft | 461 kts | 185° |
| 2026-05-07 20:19 | 48.35843 | 6.69181 | 35023 ft | 461 kts | 185° |
| 2026-05-07 20:20 | 48.29456 | 6.68935 | 35039 ft | 461 kts | 185° |
| 2026-05-07 20:20 | 48.23039 | 6.68689 | 35015 ft | 461 kts | 185° |
| 2026-05-07 20:21 | 48.16650 | 6.68443 | 35033 ft | 461 kts | 185° |
| 2026-05-07 20:21 | 48.10229 | 6.68199 | 35030 ft | 461 kts | 185° |
| 2026-05-07 20:22 | 48.03816 | 6.67957 | 35016 ft | 459 kts | 185° |
| 2026-05-07 20:22 | 47.97417 | 6.67712 | 35029 ft | 460 kts | 185° |
| 2026-05-07 20:23 | 47.91046 | 6.67472 | 35025 ft | 460 kts | 185° |
| 2026-05-07 20:23 | 47.84590 | 6.67227 | 35038 ft | 460 kts | 185° |
| 2026-05-07 20:24 | 47.78188 | 6.66988 | 35031 ft | 459 kts | 186° |
| 2026-05-07 20:24 | 47.71836 | 6.66749 | 35028 ft | 458 kts | 185° |
| 2026-05-07 20:25 | 47.65474 | 6.66511 | 35036 ft | 458 kts | 186° |
| 2026-05-07 20:25 | 47.59057 | 6.66271 | 35018 ft | 459 kts | 186° |
| 2026-05-07 20:26 | 47.52716 | 6.66034 | 35026 ft | 458 kts | 186° |
| 2026-05-07 20:26 | 47.46339 | 6.65798 | 35006 ft | 457 kts | 186° |
| 2026-05-07 20:27 | 47.40094 | 6.64660 | 35015 ft | 447 kts | 203° |
| 2026-05-07 20:27 | 47.37330 | 6.62767 | 35045 ft | 439 kts | 215° |
| 2026-05-07 20:27 | 47.34925 | 6.60003 | 35043 ft | 437 kts | 226° |
| 2026-05-07 20:28 | 47.30399 | 6.53967 | 35011 ft | 438 kts | 224° |
| 2026-05-07 20:28 | 47.25779 | 6.48138 | 35032 ft | 439 kts | 223° |
| 2026-05-07 20:29 | 47.21133 | 6.42327 | 35012 ft | 440 kts | 223° |
| 2026-05-07 20:29 | 47.16475 | 6.36519 | 35025 ft | 440 kts | 223° |
| 2026-05-07 20:30 | 47.11817 | 6.30728 | 35025 ft | 438 kts | 223° |
| 2026-05-07 20:30 | 47.07010 | 6.25254 | 34998 ft | 443 kts | 211° |
| 2026-05-07 20:30 | 47.04140 | 6.23528 | 35025 ft | 447 kts | 199° |
| 2026-05-07 20:31 | 47.01048 | 6.22791 | 35036 ft | 454 kts | 186° |
| 2026-05-07 20:31 | 46.94762 | 6.22321 | 35023 ft | 452 kts | 188° |
| 2026-05-07 20:32 | 46.88502 | 6.21528 | 35016 ft | 452 kts | 189° |
| 2026-05-07 20:32 | 46.82201 | 6.20695 | 35019 ft | 452 kts | 189° |
| 2026-05-07 20:33 | 46.75932 | 6.19863 | 35029 ft | 452 kts | 189° |
| 2026-05-07 20:33 | 46.69691 | 6.19035 | 35047 ft | 452 kts | 189° |
| 2026-05-07 20:34 | 46.63417 | 6.18208 | 35038 ft | 451 kts | 189° |
| 2026-05-07 20:34 | 46.57139 | 6.17380 | 35034 ft | 451 kts | 189° |
| 2026-05-07 20:35 | 46.50894 | 6.16559 | 35050 ft | 450 kts | 189° |
| 2026-05-07 20:35 | 46.44661 | 6.15740 | 35018 ft | 449 kts | 189° |
| 2026-05-07 20:36 | 46.38454 | 6.14928 | 35029 ft | 449 kts | 189° |
| 2026-05-07 20:36 | 46.32218 | 6.14114 | 35004 ft | 449 kts | 189° |
| 2026-05-07 20:37 | 46.25943 | 6.13568 | 35013 ft | 454 kts | 179° |
| 2026-05-07 20:37 | 46.22836 | 6.14403 | 35021 ft | 460 kts | 167° |
| 2026-05-07 20:37 | 46.19840 | 6.16199 | 35043 ft | 467 kts | 159° |
| 2026-05-07 20:38 | 46.13917 | 6.19893 | 35020 ft | 466 kts | 162° |
| 2026-05-07 20:38 | 46.07904 | 6.23418 | 35007 ft | 463 kts | 162° |
| 2026-05-07 20:39 | 46.01933 | 6.26887 | 35006 ft | 463 kts | 162° |
| 2026-05-07 20:39 | 45.95958 | 6.30351 | 35015 ft | 463 kts | 162° |
| 2026-05-07 20:40 | 45.89978 | 6.33806 | 35047 ft | 461 kts | 162° |
| 2026-05-07 20:40 | 45.84003 | 6.37256 | 35023 ft | 463 kts | 162° |
| 2026-05-07 20:41 | 45.78062 | 6.40798 | 35061 ft | 465 kts | 160° |
| 2026-05-07 20:41 | 45.72129 | 6.44540 | 35058 ft | 465 kts | 161° |
| 2026-05-07 20:42 | 45.66206 | 6.48250 | 35075 ft | 466 kts | 161° |
| 2026-05-07 20:42 | 45.60258 | 6.51960 | 35081 ft | 466 kts | 161° |
| 2026-05-07 20:43 | 45.54319 | 6.55661 | 35082 ft | 464 kts | 161° |
| 2026-05-07 20:43 | 45.48385 | 6.59347 | 35077 ft | 466 kts | 161° |
| 2026-05-07 20:44 | 45.42418 | 6.63047 | 35067 ft | 466 kts | 161° |
| 2026-05-07 20:44 | 45.36470 | 6.66730 | 35043 ft | 467 kts | 162° |
| 2026-05-07 20:45 | 45.30509 | 6.70405 | 35043 ft | 466 kts | 162° |
| 2026-05-07 20:45 | 45.24558 | 6.74071 | 35045 ft | 466 kts | 162° |
| 2026-05-07 20:46 | 45.18586 | 6.77739 | 35034 ft | 467 kts | 162° |
| 2026-05-07 20:46 | 45.12628 | 6.81390 | 35042 ft | 466 kts | 162° |
| 2026-05-07 20:47 | 45.06654 | 6.85047 | 35041 ft | 468 kts | 163° |
| 2026-05-07 20:47 | 45.00661 | 6.88701 | 35043 ft | 467 kts | 163° |
| 2026-05-07 20:48 | 44.94721 | 6.92319 | 35038 ft | 464 kts | 163° |
| 2026-05-07 20:48 | 44.88724 | 6.95958 | 35042 ft | 470 kts | 162° |
| 2026-05-07 20:49 | 44.82755 | 6.99552 | 35040 ft | 461 kts | 166° |
| 2026-05-07 20:49 | 44.79664 | 7.00683 | 35026 ft | 450 kts | 179° |
| 2026-05-07 20:49 | 44.76574 | 7.00804 | 35057 ft | 440 kts | 191° |
| 2026-05-07 20:50 | 44.70583 | 6.99520 | 35039 ft | 434 kts | 193° |
| 2026-05-07 20:50 | 44.64623 | 6.98370 | 35045 ft | 432 kts | 193° |
| 2026-05-07 20:51 | 44.58670 | 6.97252 | 35039 ft | 432 kts | 193° |
| 2026-05-07 20:51 | 44.52698 | 6.96139 | 35035 ft | 431 kts | 193° |
| 2026-05-07 20:52 | 44.46726 | 6.95026 | 35036 ft | 430 kts | 193° |
| 2026-05-07 20:52 | 44.40798 | 6.93923 | 35044 ft | 427 kts | 193° |
| 2026-05-07 20:53 | 44.34933 | 6.92837 | 35048 ft | 423 kts | 193° |
| 2026-05-07 20:53 | 44.29076 | 6.91752 | 35047 ft | 424 kts | 193° |
| 2026-05-07 20:54 | 44.23230 | 6.90671 | 35049 ft | 425 kts | 193° |
| 2026-05-07 20:54 | 44.17348 | 6.89586 | 35037 ft | 425 kts | 193° |
| 2026-05-07 20:55 | 44.11405 | 6.89355 | 35035 ft | 432 kts | 178° |
| 2026-05-07 20:55 | 44.05466 | 6.90357 | 35010 ft | 428 kts | 180° |
| 2026-05-07 20:56 | 43.99533 | 6.91257 | 35019 ft | 428 kts | 180° |
| 2026-05-07 20:56 | 43.93589 | 6.92145 | 35015 ft | 430 kts | 180° |
| 2026-05-07 20:57 | 43.87622 | 6.93040 | 35022 ft | 431 kts | 180° |
| 2026-05-07 20:57 | 43.81656 | 6.93924 | 35015 ft | 430 kts | 180° |
| 2026-05-07 20:58 | 43.75694 | 6.94814 | 35003 ft | 428 kts | 180° |
| 2026-05-07 20:58 | 43.69766 | 6.95416 | 35006 ft | 424 kts | 185° |
| 2026-05-07 20:59 | 43.63869 | 6.95482 | 35002 ft | 425 kts | 184° |
| 2026-05-07 20:59 | 43.57908 | 6.95579 | 35004 ft | 426 kts | 184° |
| 2026-05-07 21:00 | 43.51995 | 6.95684 | 35004 ft | 427 kts | 184° |
| 2026-05-07 21:00 | 43.46004 | 6.95787 | 35004 ft | 427 kts | 184° |
| 2026-05-07 21:01 | 43.40070 | 6.95889 | 34997 ft | 427 kts | 184° |
| 2026-05-07 21:01 | 43.34129 | 6.95992 | 35006 ft | 428 kts | 184° |
| 2026-05-07 21:02 | 43.28153 | 6.96093 | 34991 ft | 428 kts | 184° |
| 2026-05-07 21:02 | 43.22198 | 6.96197 | 34993 ft | 427 kts | 184° |
| 2026-05-07 21:03 | 43.16265 | 6.96298 | 35000 ft | 429 kts | 184° |
| 2026-05-07 21:03 | 43.10290 | 6.96402 | 35000 ft | 429 kts | 184° |
| 2026-05-07 21:04 | 43.04315 | 6.96502 | 35007 ft | 429 kts | 184° |
| 2026-05-07 21:04 | 42.98346 | 6.96604 | 35002 ft | 427 kts | 184° |
| 2026-05-07 21:05 | 42.92407 | 6.96704 | 34984 ft | 428 kts | 184° |
| 2026-05-07 21:05 | 42.86393 | 6.96807 | 35000 ft | 428 kts | 184° |
| 2026-05-07 21:06 | 42.80444 | 6.96907 | 35012 ft | 429 kts | 184° |
| 2026-05-07 21:06 | 42.74458 | 6.97009 | 34993 ft | 429 kts | 183° |
| 2026-05-07 21:07 | 42.68483 | 6.97110 | 34990 ft | 430 kts | 184° |
| 2026-05-07 21:07 | 42.62463 | 6.97210 | 34991 ft | 431 kts | 184° |
| 2026-05-07 21:08 | 42.56467 | 6.97311 | 34988 ft | 434 kts | 184° |
| 2026-05-07 21:08 | 42.50409 | 6.97413 | 34978 ft | 434 kts | 184° |
| 2026-05-07 21:09 | 42.44358 | 6.97515 | 34981 ft | 433 kts | 184° |
| 2026-05-07 21:09 | 42.38312 | 6.97615 | 34980 ft | 434 kts | 183° |
| 2026-05-07 21:10 | 42.32280 | 6.97715 | 34964 ft | 433 kts | 184° |
| 2026-05-07 21:10 | 42.26203 | 6.97817 | 34987 ft | 436 kts | 184° |
| 2026-05-07 21:11 | 42.20163 | 6.97917 | 34965 ft | 434 kts | 184° |
| 2026-05-07 21:11 | 42.11100 | 6.98067 | 34970 ft | 434 kts | 184° |
| 2026-05-07 21:12 | 42.05047 | 6.98166 | 34979 ft | 437 kts | 184° |
| 2026-05-07 21:12 | 41.98935 | 6.98381 | 34973 ft | 437 kts | 181° |
| 2026-05-07 21:13 | 41.92854 | 6.98710 | 34972 ft | 439 kts | 182° |
| 2026-05-07 21:13 | 41.86721 | 6.99037 | 34981 ft | 438 kts | 182° |
| 2026-05-07 21:14 | 41.80634 | 6.99362 | 34991 ft | 439 kts | 182° |
| 2026-05-07 21:14 | 41.74563 | 6.99682 | 34991 ft | 437 kts | 182° |
| 2026-05-07 21:15 | 41.68450 | 7.00005 | 34953 ft | 439 kts | 182° |
| 2026-05-07 21:15 | 41.62363 | 7.00327 | 34980 ft | 438 kts | 182° |
| 2026-05-07 21:16 | 41.56271 | 7.00648 | 34970 ft | 435 kts | 181° |
| 2026-05-07 21:16 | 41.50196 | 7.00966 | 34950 ft | 437 kts | 181° |
| 2026-05-07 21:17 | 41.44122 | 7.01286 | 34965 ft | 438 kts | 181° |
| 2026-05-07 21:17 | 41.37989 | 7.01607 | 34947 ft | 439 kts | 181° |
| 2026-05-07 21:18 | 41.31881 | 7.01927 | 34959 ft | 440 kts | 181° |
| 2026-05-07 21:18 | 41.25791 | 7.02244 | 34954 ft | 439 kts | 181° |
| 2026-05-07 21:19 | 41.19642 | 7.02564 | 34957 ft | 439 kts | 181° |
| 2026-05-07 21:19 | 41.13518 | 7.02882 | 34965 ft | 440 kts | 181° |
| 2026-05-07 21:20 | 41.07402 | 7.03202 | 34967 ft | 439 kts | 181° |
| 2026-05-07 21:20 | 41.01299 | 7.03809 | 34985 ft | 439 kts | 179° |
| 2026-05-07 21:21 | 40.95207 | 7.04420 | 34968 ft | 438 kts | 179° |
| 2026-05-07 21:21 | 40.89124 | 7.05024 | 34958 ft | 440 kts | 179° |
| 2026-05-07 21:22 | 40.83048 | 7.05627 | 34962 ft | 439 kts | 179° |
| 2026-05-07 21:22 | 40.76949 | 7.06230 | 34927 ft | 438 kts | 179° |
| 2026-05-07 21:23 | 40.70852 | 7.06833 | 34958 ft | 439 kts | 179° |
| 2026-05-07 21:23 | 40.64719 | 7.07437 | 34960 ft | 440 kts | 179° |
| 2026-05-07 21:24 | 40.58575 | 7.08041 | 34933 ft | 441 kts | 179° |
| 2026-05-07 21:24 | 40.52496 | 7.08639 | 34938 ft | 436 kts | 180° |
| 2026-05-07 21:25 | 40.46446 | 7.09231 | 34947 ft | 436 kts | 180° |
| 2026-05-07 21:25 | 40.40349 | 7.09827 | 34944 ft | 441 kts | 179° |
| 2026-05-07 21:26 | 40.34245 | 7.10424 | 34928 ft | 436 kts | 179° |
| 2026-05-07 21:26 | 40.28167 | 7.11017 | 34930 ft | 439 kts | 179° |
| 2026-05-07 21:27 | 40.22087 | 7.11608 | 34927 ft | 436 kts | 179° |
| 2026-05-07 21:27 | 40.16022 | 7.12200 | 34937 ft | 437 kts | 179° |
| 2026-05-07 21:28 | 40.09942 | 7.12788 | 34930 ft | 437 kts | 179° |
| 2026-05-07 21:28 | 40.03844 | 7.13377 | 34881 ft | 436 kts | 179° |
| 2026-05-07 21:29 | 39.97807 | 7.13961 | 34906 ft | 437 kts | 179° |
| 2026-05-07 21:29 | 39.91730 | 7.14549 | 34937 ft | 435 kts | 179° |
| 2026-05-07 21:30 | 39.85693 | 7.15129 | 34933 ft | 434 kts | 179° |
| 2026-05-07 21:30 | 39.79681 | 7.15707 | 34926 ft | 437 kts | 180° |
| 2026-05-07 21:31 | 39.73559 | 7.16264 | 34918 ft | 437 kts | 182° |
| 2026-05-07 21:31 | 39.67613 | 7.15360 | 34978 ft | 431 kts | 191° |
| 2026-05-07 21:32 | 39.61649 | 7.14273 | 34927 ft | 430 kts | 191° |
| 2026-05-07 21:32 | 39.55689 | 7.13205 | 34933 ft | 433 kts | 191° |
| 2026-05-07 21:33 | 39.49742 | 7.12144 | 34941 ft | 432 kts | 191° |
| 2026-05-07 21:33 | 39.43754 | 7.11076 | 34947 ft | 433 kts | 191° |
| 2026-05-07 21:34 | 39.37810 | 7.10020 | 34908 ft | 432 kts | 191° |
| 2026-05-07 21:34 | 39.31838 | 7.08958 | 34949 ft | 434 kts | 191° |
| 2026-05-07 21:35 | 39.25809 | 7.07890 | 34914 ft | 434 kts | 191° |
| 2026-05-07 21:35 | 39.19831 | 7.06832 | 34915 ft | 435 kts | 191° |
| 2026-05-07 21:36 | 39.13815 | 7.05767 | 34976 ft | 435 kts | 191° |
| 2026-05-07 21:36 | 39.07844 | 7.04716 | 34871 ft | 433 kts | 191° |
| 2026-05-07 21:37 | 39.04857 | 7.04191 | 34993 ft | 434 kts | 191° |
| 2026-05-07 21:37 | 39.01860 | 7.03661 | 34895 ft | 437 kts | 191° |
| 2026-05-07 21:37 | 38.95879 | 7.02662 | 34985 ft | 434 kts | 190° |
| 2026-05-07 21:38 | 38.89863 | 7.01687 | 34916 ft | 433 kts | 191° |
| 2026-05-07 21:38 | 38.83866 | 7.00713 | 34938 ft | 435 kts | 191° |
| 2026-05-07 21:39 | 38.77867 | 6.99740 | 34941 ft | 436 kts | 191° |
| 2026-05-07 21:39 | 38.71850 | 6.98765 | 34949 ft | 435 kts | 191° |
| 2026-05-07 21:40 | 38.65857 | 6.97802 | 34917 ft | 431 kts | 192° |
| 2026-05-07 21:40 | 38.59893 | 6.96836 | 34923 ft | 435 kts | 191° |
| 2026-05-07 21:41 | 38.53859 | 6.95867 | 34896 ft | 433 kts | 192° |
| 2026-05-07 21:41 | 38.47886 | 6.94906 | 34918 ft | 433 kts | 191° |
| 2026-05-07 21:42 | 38.41916 | 6.93948 | 34955 ft | 433 kts | 192° |
| 2026-05-07 21:42 | 38.35920 | 6.92988 | 34935 ft | 433 kts | 192° |
| 2026-05-07 21:43 | 38.29966 | 6.92038 | 34916 ft | 434 kts | 192° |
| 2026-05-07 21:43 | 38.23908 | 6.91071 | 34866 ft | 436 kts | 192° |
| 2026-05-07 21:44 | 38.17865 | 6.90104 | 34907 ft | 438 kts | 193° |
| 2026-05-07 21:44 | 38.11855 | 6.89149 | 34883 ft | 435 kts | 192° |
| 2026-05-07 21:45 | 38.05815 | 6.88192 | 34919 ft | 437 kts | 193° |
| 2026-05-07 21:45 | 37.99788 | 6.87234 | 34886 ft | 437 kts | 192° |
| 2026-05-07 21:46 | 37.93734 | 6.86277 | 34903 ft | 438 kts | 193° |
| 2026-05-07 21:46 | 37.87661 | 6.85314 | 34900 ft | 439 kts | 192° |
| 2026-05-07 21:47 | 37.81606 | 6.84362 | 34907 ft | 437 kts | 193° |
| 2026-05-07 21:47 | 37.75516 | 6.83401 | 34896 ft | 440 kts | 193° |
| 2026-05-07 21:48 | 37.69443 | 6.82445 | 34904 ft | 439 kts | 193° |
| 2026-05-07 21:48 | 37.63388 | 6.81496 | 34902 ft | 438 kts | 193° |
| 2026-05-07 21:49 | 37.57308 | 6.80540 | 34901 ft | 439 kts | 193° |
| 2026-05-07 21:49 | 37.51233 | 6.79592 | 34905 ft | 437 kts | 193° |
| 2026-05-07 21:50 | 37.45171 | 6.78643 | 34903 ft | 439 kts | 193° |
| 2026-05-07 21:50 | 37.39055 | 6.77688 | 34911 ft | 440 kts | 193° |
| 2026-05-07 21:51 | 37.32987 | 6.76744 | 34900 ft | 439 kts | 193° |
| 2026-05-07 21:51 | 37.26874 | 6.75795 | 34895 ft | 439 kts | 194° |
| 2026-05-07 21:52 | 37.20786 | 6.74848 | 34902 ft | 439 kts | 194° |
| 2026-05-07 21:52 | 37.17763 | 6.74381 | 35056 ft | 440 kts | 194° |
| 2026-05-07 21:52 | 37.14690 | 6.73906 | 34888 ft | 443 kts | 194° |
| 2026-05-07 21:53 | 37.11616 | 6.73428 | 34739 ft | 437 kts | 194° |
| 2026-05-07 21:53 | 37.08624 | 6.72967 | 34952 ft | 435 kts | 194° |
| 2026-05-07 21:53 | 37.02540 | 6.72026 | 34905 ft | 438 kts | 193° |
| 2026-05-07 21:54 | 36.96428 | 6.71084 | 34899 ft | 438 kts | 194° |
| 2026-05-07 21:54 | 36.90356 | 6.70148 | 34903 ft | 442 kts | 194° |
| 2026-05-07 21:55 | 36.84208 | 6.69203 | 34912 ft | 441 kts | 193° |
| 2026-05-07 21:55 | 36.78063 | 6.68261 | 34908 ft | 440 kts | 194° |
| 2026-05-07 21:56 | 36.71965 | 6.67326 | 34917 ft | 441 kts | 194° |
| 2026-05-07 21:56 | 36.65863 | 6.66393 | 34920 ft | 441 kts | 194° |
| 2026-05-07 21:57 | 36.59750 | 6.65460 | 34934 ft | 440 kts | 194° |
| 2026-05-07 21:57 | 36.53633 | 6.64526 | 34969 ft | 441 kts | 194° |
| 2026-05-07 21:58 | 36.47496 | 6.63592 | 34955 ft | 442 kts | 194° |
| 2026-05-07 21:58 | 36.41373 | 6.62662 | 34974 ft | 442 kts | 194° |
| 2026-05-07 21:59 | 36.35262 | 6.61731 | 34987 ft | 443 kts | 194° |
| 2026-05-07 21:59 | 36.29041 | 6.60984 | 34974 ft | 453 kts | 185° |
| 2026-05-07 22:00 | 36.25851 | 6.61519 | 34985 ft | 464 kts | 174° |
| 2026-05-07 22:00 | 36.22707 | 6.62461 | 34981 ft | 464 kts | 175° |
| 2026-05-07 22:00 | 36.16406 | 6.64130 | 34971 ft | 462 kts | 176° |
| 2026-05-07 22:01 | 36.10050 | 6.65756 | 34981 ft | 462 kts | 176° |
| 2026-05-07 22:01 | 36.03735 | 6.67367 | 34968 ft | 463 kts | 176° |
| 2026-05-07 22:02 | 35.97397 | 6.68980 | 34951 ft | 461 kts | 175° |
| 2026-05-07 22:02 | 35.91074 | 6.70585 | 34952 ft | 464 kts | 175° |
| 2026-05-07 22:03 | 35.84713 | 6.72202 | 34943 ft | 461 kts | 176° |
| 2026-05-07 22:03 | 35.78439 | 6.73789 | 34974 ft | 461 kts | 176° |
| 2026-05-07 22:04 | 35.72130 | 6.75384 | 34952 ft | 459 kts | 176° |
| 2026-05-07 22:04 | 35.65835 | 6.76970 | 34940 ft | 460 kts | 176° |
| 2026-05-07 22:05 | 35.59567 | 6.78550 | 34979 ft | 460 kts | 176° |
| 2026-05-07 22:05 | 35.53219 | 6.80148 | 34963 ft | 459 kts | 176° |
| 2026-05-07 22:06 | 35.47020 | 6.81707 | 34977 ft | 456 kts | 176° |
| 2026-05-07 22:06 | 35.40761 | 6.83276 | 34969 ft | 459 kts | 176° |
| 2026-05-07 22:07 | 35.34446 | 6.84858 | 34961 ft | 456 kts | 176° |
| 2026-05-07 22:07 | 35.28250 | 6.86405 | 34983 ft | 457 kts | 176° |
| 2026-05-07 22:08 | 35.21999 | 6.87965 | 34989 ft | 454 kts | 176° |
| 2026-05-07 22:08 | 35.15788 | 6.89516 | 34999 ft | 451 kts | 177° |
| 2026-05-07 22:09 | 35.09621 | 6.91048 | 34993 ft | 452 kts | 176° |
| 2026-05-07 22:09 | 35.03461 | 6.92576 | 34988 ft | 452 kts | 177° |
| 2026-05-07 22:10 | 34.97266 | 6.94116 | 34999 ft | 450 kts | 177° |
| 2026-05-07 22:10 | 34.91092 | 6.95644 | 34992 ft | 452 kts | 176° |
| 2026-05-07 22:11 | 34.84893 | 6.97178 | 34975 ft | 450 kts | 176° |
| 2026-05-07 22:11 | 34.78734 | 6.98705 | 34948 ft | 449 kts | 176° |
| 2026-05-07 22:12 | 34.72623 | 7.00255 | 34916 ft | 445 kts | 176° |
| 2026-05-07 22:12 | 34.66550 | 7.01792 | 34922 ft | 441 kts | 177° |
| 2026-05-07 22:13 | 34.60503 | 7.03316 | 34917 ft | 442 kts | 177° |
| 2026-05-07 22:13 | 34.54463 | 7.04839 | 34905 ft | 445 kts | 177° |
| 2026-05-07 22:14 | 34.48355 | 7.06381 | 34895 ft | 443 kts | 177° |
| 2026-05-07 22:14 | 34.42336 | 7.07892 | 34877 ft | 440 kts | 177° |
| 2026-05-07 22:15 | 34.36283 | 7.09411 | 34879 ft | 446 kts | 177° |
| 2026-05-07 22:15 | 34.30205 | 7.10939 | 34861 ft | 442 kts | 177° |
| 2026-05-07 22:16 | 34.24206 | 7.12439 | 34861 ft | 435 kts | 178° |
| 2026-05-07 22:16 | 34.18218 | 7.13937 | 34847 ft | 433 kts | 177° |
| 2026-05-07 22:17 | 34.12283 | 7.15414 | 34841 ft | 435 kts | 177° |
| 2026-05-07 22:17 | 34.06342 | 7.16900 | 34838 ft | 430 kts | 178° |
| 2026-05-07 22:18 | 33.97482 | 7.19101 | 34837 ft | 433 kts | 177° |
| 2026-05-07 22:19 | 33.91548 | 7.20578 | 34838 ft | 434 kts | 178° |
| 2026-05-07 22:19 | 33.85638 | 7.22042 | 34847 ft | 434 kts | 178° |
| 2026-05-07 22:20 | 33.79689 | 7.23516 | 34845 ft | 434 kts | 178° |
| 2026-05-07 22:20 | 33.73737 | 7.24989 | 34845 ft | 434 kts | 178° |
| 2026-05-07 22:21 | 33.67816 | 7.26452 | 34849 ft | 429 kts | 178° |
| 2026-05-07 22:21 | 33.61953 | 7.27897 | 34848 ft | 432 kts | 178° |
| 2026-05-07 22:22 | 33.56025 | 7.29356 | 34850 ft | 431 kts | 178° |
| 2026-05-07 22:22 | 33.50145 | 7.30807 | 34856 ft | 427 kts | 178° |
| 2026-05-07 22:23 | 33.44257 | 7.32248 | 34850 ft | 428 kts | 178° |
| 2026-05-07 22:23 | 33.38397 | 7.33685 | 34861 ft | 432 kts | 178° |
| 2026-05-07 22:24 | 33.32501 | 7.35130 | 34846 ft | 425 kts | 179° |
| 2026-05-07 22:24 | 33.26652 | 7.36560 | 34844 ft | 429 kts | 178° |
| 2026-05-07 22:25 | 33.20755 | 7.38000 | 34863 ft | 431 kts | 178° |
| 2026-05-07 22:25 | 33.14889 | 7.39433 | 34845 ft | 428 kts | 178° |
| 2026-05-07 22:26 | 33.09043 | 7.40855 | 34843 ft | 430 kts | 178° |
| 2026-05-07 22:26 | 33.03141 | 7.42293 | 34832 ft | 428 kts | 179° |
| 2026-05-07 22:27 | 32.97247 | 7.43723 | 34834 ft | 427 kts | 178° |
| 2026-05-07 22:27 | 32.91377 | 7.45147 | 34837 ft | 427 kts | 178° |
| 2026-05-07 22:28 | 32.85483 | 7.46571 | 34858 ft | 430 kts | 178° |
| 2026-05-07 22:28 | 32.79567 | 7.48007 | 34855 ft | 427 kts | 179° |
| 2026-05-07 22:29 | 32.73713 | 7.49420 | 34860 ft | 426 kts | 178° |
| 2026-05-07 22:29 | 32.67828 | 7.50838 | 34852 ft | 428 kts | 178° |
| 2026-05-07 22:30 | 32.61934 | 7.52261 | 34858 ft | 431 kts | 178° |
| 2026-05-07 22:30 | 32.56064 | 7.53671 | 34866 ft | 427 kts | 178° |
| 2026-05-07 22:31 | 32.50203 | 7.55081 | 34865 ft | 428 kts | 178° |
| 2026-05-07 22:31 | 32.44350 | 7.56488 | 34867 ft | 424 kts | 178° |
| 2026-05-07 22:32 | 32.38502 | 7.57885 | 34872 ft | 427 kts | 178° |
| 2026-05-07 22:32 | 32.32666 | 7.59287 | 34869 ft | 426 kts | 178° |
| 2026-05-07 22:33 | 32.26802 | 7.60689 | 34871 ft | 427 kts | 178° |
| 2026-05-07 22:33 | 32.20935 | 7.62086 | 34872 ft | 428 kts | 178° |
| 2026-05-07 22:34 | 32.15074 | 7.63485 | 34867 ft | 424 kts | 178° |
| 2026-05-07 22:34 | 32.09247 | 7.64872 | 34870 ft | 427 kts | 178° |
| 2026-05-07 22:35 | 32.03380 | 7.66266 | 34856 ft | 429 kts | 178° |
| 2026-05-07 22:35 | 31.97489 | 7.67670 | 34846 ft | 426 kts | 178° |
| 2026-05-07 22:36 | 31.91648 | 7.69052 | 34856 ft | 428 kts | 178° |
| 2026-05-07 22:36 | 31.85761 | 7.70445 | 34874 ft | 427 kts | 179° |
| 2026-05-07 22:37 | 31.79850 | 7.71845 | 34883 ft | 430 kts | 178° |
| 2026-05-07 22:37 | 31.73974 | 7.73243 | 34880 ft | 428 kts | 178° |
| 2026-05-07 22:38 | 31.68058 | 7.74677 | 34876 ft | 429 kts | 178° |
| 2026-05-07 22:38 | 31.62219 | 7.76086 | 34878 ft | 430 kts | 178° |
| 2026-05-07 22:39 | 31.56255 | 7.77526 | 34878 ft | 434 kts | 178° |
| 2026-05-07 22:39 | 31.50366 | 7.78946 | 34873 ft | 428 kts | 178° |
| 2026-05-07 22:40 | 31.44457 | 7.80369 | 34892 ft | 433 kts | 177° |
| 2026-05-07 22:40 | 31.38507 | 7.81797 | 34867 ft | 432 kts | 178° |
| 2026-05-07 22:41 | 31.32578 | 7.83221 | 34874 ft | 434 kts | 177° |
| 2026-05-07 22:41 | 31.26591 | 7.84656 | 34869 ft | 434 kts | 178° |
| 2026-05-07 22:42 | 31.20652 | 7.86080 | 34895 ft | 435 kts | 178° |
| 2026-05-07 22:42 | 31.14699 | 7.87504 | 34875 ft | 433 kts | 178° |
| 2026-05-07 22:43 | 31.08740 | 7.88928 | 34878 ft | 433 kts | 177° |
| 2026-05-07 22:43 | 31.02781 | 7.90348 | 34888 ft | 434 kts | 178° |
| 2026-05-07 22:44 | 30.96835 | 7.91767 | 34882 ft | 435 kts | 178° |
| 2026-05-07 22:44 | 30.90821 | 7.93199 | 34874 ft | 436 kts | 178° |
| 2026-05-07 22:45 | 30.84840 | 7.94618 | 34917 ft | 438 kts | 178° |
| 2026-05-07 22:45 | 30.78823 | 7.96046 | 34930 ft | 437 kts | 178° |
| 2026-05-07 22:46 | 30.72802 | 7.97475 | 34912 ft | 435 kts | 178° |
| 2026-05-07 22:46 | 30.66824 | 7.98888 | 34942 ft | 436 kts | 177° |
| 2026-05-07 22:47 | 30.60825 | 8.00309 | 34937 ft | 435 kts | 178° |
| 2026-05-07 22:47 | 30.54842 | 8.01721 | 34928 ft | 434 kts | 177° |
| 2026-05-07 22:48 | 30.48841 | 8.03136 | 34933 ft | 436 kts | 178° |
| 2026-05-07 22:48 | 30.42880 | 8.04540 | 34939 ft | 436 kts | 177° |
| 2026-05-07 22:49 | 30.36893 | 8.05949 | 34933 ft | 434 kts | 177° |
| 2026-05-07 22:49 | 30.30926 | 8.07350 | 34949 ft | 435 kts | 177° |
| 2026-05-07 22:50 | 30.24960 | 8.08750 | 34921 ft | 436 kts | 177° |
| 2026-05-07 22:50 | 30.18976 | 8.10154 | 34911 ft | 437 kts | 177° |
| 2026-05-07 22:51 | 30.12954 | 8.11564 | 34902 ft | 436 kts | 177° |
| 2026-05-07 22:51 | 30.06962 | 8.12965 | 34914 ft | 438 kts | 177° |
| 2026-05-07 22:52 | 30.00951 | 8.14391 | 34927 ft | 438 kts | 176° |
| 2026-05-07 22:52 | 29.94957 | 8.15814 | 34932 ft | 435 kts | 177° |
| 2026-05-07 22:52 | 29.91950 | 8.16532 | 35249 ft | 433 kts | 177° |
| 2026-05-07 22:53 | 29.88985 | 8.17236 | 35589 ft | 431 kts | 178° |
| 2026-05-07 22:53 | 29.86033 | 8.17934 | 35760 ft | 432 kts | 178° |
| 2026-05-07 22:53 | 29.83066 | 8.18637 | 36010 ft | 432 kts | 178° |
| 2026-05-07 22:53 | 29.80083 | 8.19342 | 36256 ft | 431 kts | 178° |
| 2026-05-07 22:54 | 29.77115 | 8.20048 | 36556 ft | 430 kts | 178° |
| 2026-05-07 22:54 | 29.74169 | 8.20743 | 36758 ft | 430 kts | 178° |
| 2026-05-07 22:54 | 29.71219 | 8.21439 | 36985 ft | 430 kts | 178° |
| 2026-05-07 22:55 | 29.65249 | 8.22847 | 36905 ft | 439 kts | 178° |
| 2026-05-07 22:55 | 29.59184 | 8.24278 | 36918 ft | 445 kts | 178° |
| 2026-05-07 22:56 | 29.53096 | 8.25718 | 36916 ft | 441 kts | 178° |
| 2026-05-07 22:56 | 29.47044 | 8.27139 | 36963 ft | 441 kts | 178° |
| 2026-05-07 22:57 | 29.40963 | 8.28566 | 36981 ft | 444 kts | 178° |
| 2026-05-07 22:57 | 29.34879 | 8.30001 | 37056 ft | 437 kts | 178° |
| 2026-05-07 22:57 | 29.31858 | 8.30706 | 36747 ft | 445 kts | 178° |
| 2026-05-07 22:58 | 29.28850 | 8.31412 | 36992 ft | 438 kts | 177° |
| 2026-05-07 22:58 | 29.22765 | 8.32835 | 36861 ft | 444 kts | 178° |
| 2026-05-07 22:58 | 29.19759 | 8.33542 | 37016 ft | 443 kts | 179° |
| 2026-05-07 22:59 | 29.16699 | 8.34252 | 36886 ft | 447 kts | 178° |
| 2026-05-07 22:59 | 29.10554 | 8.35690 | 36975 ft | 447 kts | 179° |
| 2026-05-07 23:00 | 29.04429 | 8.37123 | 36955 ft | 442 kts | 179° |
| 2026-05-07 23:00 | 28.98342 | 8.38539 | 36955 ft | 443 kts | 178° |
| 2026-05-07 23:01 | 28.92247 | 8.39957 | 36952 ft | 444 kts | 179° |
| 2026-05-07 23:01 | 28.86156 | 8.41372 | 37006 ft | 444 kts | 178° |
| 2026-05-07 23:02 | 28.80029 | 8.42795 | 36999 ft | 444 kts | 179° |
| 2026-05-07 23:02 | 28.73922 | 8.44214 | 36974 ft | 445 kts | 178° |
| 2026-05-07 23:03 | 28.67741 | 8.45642 | 36979 ft | 449 kts | 179° |
| 2026-05-07 23:03 | 28.61590 | 8.47065 | 36963 ft | 450 kts | 179° |
| 2026-05-07 23:04 | 28.55476 | 8.48484 | 36975 ft | 447 kts | 179° |
| 2026-05-07 23:04 | 28.49287 | 8.49904 | 37002 ft | 449 kts | 179° |
| 2026-05-07 23:05 | 28.43118 | 8.51335 | 37029 ft | 447 kts | 179° |
| 2026-05-07 23:05 | 28.36984 | 8.52746 | 37012 ft | 448 kts | 179° |
| 2026-05-07 23:06 | 28.30814 | 8.54166 | 37003 ft | 446 kts | 179° |
| 2026-05-07 23:06 | 28.24659 | 8.55578 | 37003 ft | 449 kts | 179° |
| 2026-05-07 23:07 | 28.18444 | 8.57005 | 36961 ft | 448 kts | 179° |
| 2026-05-07 23:07 | 28.12288 | 8.58419 | 36944 ft | 447 kts | 179° |
| 2026-05-07 23:08 | 28.06133 | 8.59832 | 36983 ft | 449 kts | 178° |
| 2026-05-07 23:08 | 27.99951 | 8.61267 | 36949 ft | 454 kts | 178° |
| 2026-05-07 23:09 | 27.93686 | 8.62715 | 36947 ft | 454 kts | 178° |
| 2026-05-07 23:09 | 27.87456 | 8.64156 | 36969 ft | 454 kts | 178° |
| 2026-05-07 23:10 | 27.81233 | 8.65592 | 36938 ft | 453 kts | 179° |
| 2026-05-07 23:10 | 27.75015 | 8.67030 | 36936 ft | 453 kts | 179° |
| 2026-05-07 23:11 | 27.68759 | 8.68467 | 36951 ft | 455 kts | 179° |
| 2026-05-07 23:11 | 27.62530 | 8.69900 | 36972 ft | 454 kts | 179° |
| 2026-05-07 23:12 | 27.56279 | 8.71336 | 36964 ft | 456 kts | 179° |
| 2026-05-07 23:12 | 27.50016 | 8.72775 | 36973 ft | 457 kts | 179° |
| 2026-05-07 23:13 | 27.43776 | 8.74204 | 36972 ft | 458 kts | 179° |
| 2026-05-07 23:13 | 27.37452 | 8.75655 | 36954 ft | 456 kts | 179° |
| 2026-05-07 23:14 | 27.31190 | 8.77087 | 36943 ft | 455 kts | 179° |
| 2026-05-07 23:14 | 27.24945 | 8.78514 | 36945 ft | 456 kts | 179° |
| 2026-05-07 23:15 | 27.18666 | 8.79947 | 36947 ft | 459 kts | 179° |
| 2026-05-07 23:15 | 27.12341 | 8.81389 | 36925 ft | 457 kts | 178° |
| 2026-05-07 23:16 | 27.06037 | 8.82825 | 36961 ft | 460 kts | 179° |
| 2026-05-07 23:16 | 26.99701 | 8.84268 | 36910 ft | 463 kts | 180° |
| 2026-05-07 23:17 | 26.93303 | 8.85729 | 36972 ft | 466 kts | 179° |
| 2026-05-07 23:17 | 26.86901 | 8.87201 | 37010 ft | 465 kts | 179° |
| 2026-05-07 23:17 | 26.83685 | 8.87934 | 36904 ft | 462 kts | 178° |
| 2026-05-07 23:18 | 26.80552 | 8.88655 | 36942 ft | 454 kts | 179° |
| 2026-05-07 23:18 | 26.74285 | 8.90081 | 36962 ft | 460 kts | 178° |
| 2026-05-07 23:19 | 26.67951 | 8.91523 | 36956 ft | 464 kts | 178° |
| 2026-05-07 23:19 | 26.61545 | 8.92988 | 37032 ft | 464 kts | 178° |
| 2026-05-07 23:19 | 26.58370 | 8.93714 | 36924 ft | 466 kts | 178° |
| 2026-05-07 23:20 | 26.55173 | 8.94440 | 37022 ft | 466 kts | 178° |
| 2026-05-07 23:20 | 26.48720 | 8.95905 | 37007 ft | 470 kts | 178° |
| 2026-05-07 23:21 | 26.42338 | 8.97364 | 36980 ft | 463 kts | 179° |
| 2026-05-07 23:21 | 26.35976 | 8.98801 | 36998 ft | 462 kts | 178° |
| 2026-05-07 23:22 | 26.29594 | 9.00249 | 37028 ft | 465 kts | 178° |
| 2026-05-07 23:22 | 26.23204 | 9.01699 | 37059 ft | 469 kts | 179° |
| 2026-05-07 23:23 | 26.16710 | 9.03171 | 37073 ft | 469 kts | 179° |
| 2026-05-07 23:23 | 26.10252 | 9.04626 | 37077 ft | 472 kts | 178° |
| 2026-05-07 23:24 | 26.03782 | 9.06090 | 37075 ft | 470 kts | 179° |
| 2026-05-07 23:24 | 25.97279 | 9.07557 | 37070 ft | 475 kts | 178° |
| 2026-05-07 23:25 | 25.90752 | 9.09042 | 37097 ft | 472 kts | 179° |
| 2026-05-07 23:25 | 25.84301 | 9.10506 | 37046 ft | 469 kts | 179° |
| 2026-05-07 23:26 | 25.77809 | 9.11976 | 37096 ft | 473 kts | 178° |
| 2026-05-07 23:26 | 25.71309 | 9.13450 | 37135 ft | 473 kts | 178° |
| 2026-05-07 23:27 | 25.61553 | 9.15657 | 37158 ft | 474 kts | 178° |
| 2026-05-07 23:27 | 25.55025 | 9.17133 | 37167 ft | 474 kts | 178° |
| 2026-05-07 23:28 | 25.48517 | 9.18600 | 37139 ft | 475 kts | 178° |
| 2026-05-07 23:28 | 25.41966 | 9.20075 | 37177 ft | 480 kts | 178° |
| 2026-05-07 23:29 | 25.35391 | 9.21555 | 37203 ft | 477 kts | 178° |
| 2026-05-07 23:29 | 25.28851 | 9.23027 | 37263 ft | 478 kts | 178° |
| 2026-05-07 23:30 | 25.22305 | 9.24497 | 37238 ft | 475 kts | 178° |
| 2026-05-07 23:30 | 25.15765 | 9.25962 | 37243 ft | 479 kts | 178° |
| 2026-05-07 23:31 | 25.09125 | 9.27452 | 37287 ft | 483 kts | 178° |
| 2026-05-07 23:31 | 25.02490 | 9.28937 | 37271 ft | 480 kts | 178° |
| 2026-05-07 23:32 | 24.95895 | 9.30411 | 37271 ft | 480 kts | 178° |
| 2026-05-07 23:32 | 24.89969 | 9.31735 | 37296 ft | 480 kts | 178° |
| 2026-05-07 23:47 | 24.85315 | 9.32774 | 37257 ft | 481 kts | 178° |
| 2026-05-07 23:47 | 24.78671 | 9.34255 | 37239 ft | 481 kts | 178° |
| 2026-05-07 23:48 | 24.72047 | 9.35730 | 37260 ft | 482 kts | 178° |
| 2026-05-07 23:48 | 24.65409 | 9.37208 | 37189 ft | 483 kts | 178° |
| 2026-05-07 23:49 | 24.58801 | 9.38676 | 37163 ft | 483 kts | 178° |
| 2026-05-07 23:49 | 24.52129 | 9.40159 | 37136 ft | 482 kts | 178° |
| 2026-05-07 23:50 | 24.45502 | 9.41626 | 37027 ft | 482 kts | 177° |
| 2026-05-07 23:50 | 24.38892 | 9.43091 | 37047 ft | 481 kts | 177° |
| 2026-05-07 23:51 | 24.32278 | 9.44554 | 37020 ft | 483 kts | 177° |
| 2026-05-07 23:51 | 24.25753 | 9.46962 | 37030 ft | 507 kts | 157° |
| 2026-05-07 23:52 | 24.19652 | 9.51145 | 37012 ft | 510 kts | 156° |
| 2026-05-07 23:52 | 24.13521 | 9.55099 | 37033 ft | 509 kts | 156° |
| 2026-05-07 23:53 | 24.07325 | 9.59066 | 37045 ft | 511 kts | 156° |
| 2026-05-07 23:53 | 24.01181 | 9.62998 | 37126 ft | 508 kts | 156° |
| 2026-05-07 23:54 | 23.95000 | 9.66941 | 37118 ft | 510 kts | 156° |
| 2026-05-07 23:54 | 23.88850 | 9.70865 | 37104 ft | 509 kts | 156° |
| 2026-05-07 23:55 | 23.82638 | 9.74822 | 37100 ft | 510 kts | 156° |
| 2026-05-07 23:55 | 23.76465 | 9.78752 | 37102 ft | 510 kts | 156° |
| 2026-05-07 23:56 | 23.70293 | 9.82674 | 37087 ft | 509 kts | 156° |
| 2026-05-07 23:56 | 23.64111 | 9.86597 | 37088 ft | 510 kts | 156° |
| 2026-05-07 23:57 | 23.57922 | 9.90525 | 37082 ft | 510 kts | 156° |
| 2026-05-07 23:57 | 23.51723 | 9.94453 | 37080 ft | 509 kts | 156° |
| 2026-05-07 23:58 | 23.45546 | 9.98361 | 37077 ft | 511 kts | 156° |
| 2026-05-07 23:58 | 23.39358 | 10.02272 | 37074 ft | 510 kts | 156° |
| 2026-05-07 23:59 | 23.33160 | 10.06185 | 37070 ft | 510 kts | 156° |
| 2026-05-07 23:59 | 23.26943 | 10.10108 | 37059 ft | 512 kts | 156° |
| 2026-05-08 00:00 | 23.20714 | 10.14033 | 37059 ft | 510 kts | 156° |
| 2026-05-08 00:00 | 23.14523 | 10.17928 | 37060 ft | 510 kts | 156° |
| 2026-05-08 00:01 | 23.08330 | 10.21823 | 37059 ft | 512 kts | 156° |
| 2026-05-08 00:01 | 23.02123 | 10.25722 | 37051 ft | 510 kts | 155° |
| 2026-05-08 00:02 | 22.95883 | 10.29636 | 37045 ft | 512 kts | 155° |
| 2026-05-08 00:02 | 22.89685 | 10.33521 | 37056 ft | 511 kts | 155° |
| 2026-05-08 00:03 | 22.83491 | 10.37398 | 37066 ft | 511 kts | 155° |
| 2026-05-08 00:03 | 22.77257 | 10.41297 | 37080 ft | 511 kts | 155° |
| 2026-05-08 00:04 | 22.71038 | 10.45182 | 37073 ft | 512 kts | 155° |
| 2026-05-08 00:04 | 22.64840 | 10.49051 | 37062 ft | 510 kts | 155° |
| 2026-05-08 00:05 | 22.58697 | 10.53094 | 37052 ft | 512 kts | 153° |
| 2026-05-08 00:05 | 22.52595 | 10.57192 | 37058 ft | 514 kts | 153° |
| 2026-05-08 00:06 | 22.46456 | 10.61304 | 37069 ft | 512 kts | 153° |
| 2026-05-08 00:06 | 22.40354 | 10.65389 | 37061 ft | 511 kts | 154° |
| 2026-05-08 00:07 | 22.34230 | 10.69480 | 37042 ft | 510 kts | 153° |
| 2026-05-08 00:07 | 22.28127 | 10.73556 | 37019 ft | 513 kts | 153° |
| 2026-05-08 00:08 | 22.22045 | 10.77614 | 36995 ft | 512 kts | 153° |
| 2026-05-08 00:08 | 22.15924 | 10.81694 | 36986 ft | 511 kts | 153° |
| 2026-05-08 00:09 | 22.09796 | 10.85775 | 36997 ft | 512 kts | 153° |
| 2026-05-08 00:09 | 22.03707 | 10.89823 | 36982 ft | 512 kts | 153° |
| 2026-05-08 00:10 | 21.97560 | 10.93905 | 36974 ft | 513 kts | 153° |
| 2026-05-08 00:10 | 21.91424 | 10.97977 | 36977 ft | 514 kts | 153° |
| 2026-05-08 00:11 | 21.85312 | 11.02029 | 36972 ft | 514 kts | 153° |
| 2026-05-08 00:11 | 21.79151 | 11.06111 | 36972 ft | 511 kts | 153° |
| 2026-05-08 00:12 | 21.73054 | 11.10144 | 36985 ft | 511 kts | 153° |
| 2026-05-08 00:12 | 21.66900 | 11.14210 | 36982 ft | 513 kts | 153° |
| 2026-05-08 00:13 | 21.60797 | 11.18242 | 36987 ft | 513 kts | 152° |
| 2026-05-08 00:13 | 21.54636 | 11.22306 | 36991 ft | 513 kts | 152° |
| 2026-05-08 00:14 | 21.48501 | 11.26347 | 36988 ft | 514 kts | 152° |
| 2026-05-08 00:14 | 21.42376 | 11.30380 | 36988 ft | 512 kts | 153° |
| 2026-05-08 00:15 | 21.36225 | 11.34424 | 36990 ft | 512 kts | 152° |
| 2026-05-08 00:15 | 21.30064 | 11.38472 | 36990 ft | 515 kts | 152° |
| 2026-05-08 00:16 | 21.23894 | 11.42522 | 36995 ft | 515 kts | 152° |
| 2026-05-08 00:16 | 21.17722 | 11.46568 | 36997 ft | 514 kts | 152° |
| 2026-05-08 00:17 | 21.11569 | 11.50600 | 36995 ft | 514 kts | 152° |
| 2026-05-08 00:17 | 21.05413 | 11.54627 | 36997 ft | 514 kts | 152° |
| 2026-05-08 00:18 | 20.99237 | 11.58667 | 36984 ft | 513 kts | 152° |
| 2026-05-08 00:18 | 20.93105 | 11.62674 | 36978 ft | 515 kts | 152° |
| 2026-05-08 00:19 | 20.86913 | 11.66713 | 36947 ft | 515 kts | 152° |
| 2026-05-08 00:19 | 20.80770 | 11.70719 | 36965 ft | 514 kts | 152° |
| 2026-05-08 00:20 | 20.74603 | 11.74737 | 36975 ft | 513 kts | 152° |
| 2026-05-08 00:20 | 20.68462 | 11.78733 | 36968 ft | 512 kts | 152° |
| 2026-05-08 00:21 | 20.62318 | 11.82727 | 36965 ft | 512 kts | 152° |
| 2026-05-08 00:21 | 20.56173 | 11.86717 | 36976 ft | 512 kts | 152° |
| 2026-05-08 00:22 | 20.50016 | 11.90710 | 36967 ft | 514 kts | 152° |
| 2026-05-08 00:22 | 20.43858 | 11.94700 | 36966 ft | 513 kts | 152° |
| 2026-05-08 00:23 | 20.37708 | 11.98680 | 36957 ft | 512 kts | 152° |
| 2026-05-08 00:23 | 20.31549 | 12.02665 | 36959 ft | 512 kts | 152° |
| 2026-05-08 00:24 | 20.25391 | 12.06644 | 36964 ft | 511 kts | 152° |
| 2026-05-08 00:24 | 20.19270 | 12.10593 | 36936 ft | 511 kts | 152° |
| 2026-05-08 00:25 | 20.13129 | 12.14554 | 36949 ft | 511 kts | 152° |
| 2026-05-08 00:25 | 20.06977 | 12.18517 | 36951 ft | 510 kts | 152° |
| 2026-05-08 00:26 | 20.00839 | 12.22467 | 36940 ft | 510 kts | 151° |
| 2026-05-08 00:26 | 19.94737 | 12.26393 | 36939 ft | 508 kts | 152° |
| 2026-05-08 00:27 | 19.88622 | 12.30321 | 36950 ft | 508 kts | 152° |
| 2026-05-08 00:27 | 19.82480 | 12.34265 | 36961 ft | 509 kts | 152° |
| 2026-05-08 00:28 | 19.76352 | 12.38194 | 36965 ft | 509 kts | 152° |
| 2026-05-08 00:28 | 19.70221 | 12.42122 | 36962 ft | 509 kts | 152° |
| 2026-05-08 00:29 | 19.64124 | 12.46025 | 36966 ft | 508 kts | 151° |
| 2026-05-08 00:29 | 19.58006 | 12.49939 | 36972 ft | 508 kts | 152° |
| 2026-05-08 00:30 | 19.51928 | 12.53822 | 36978 ft | 508 kts | 151° |
| 2026-05-08 00:30 | 19.45799 | 12.57735 | 36980 ft | 508 kts | 151° |
| 2026-05-08 00:31 | 19.39657 | 12.61652 | 36980 ft | 509 kts | 151° |
| 2026-05-08 00:31 | 19.33542 | 12.65550 | 36974 ft | 508 kts | 152° |
| 2026-05-08 00:32 | 19.27428 | 12.69442 | 36963 ft | 507 kts | 152° |
| 2026-05-08 00:32 | 19.21314 | 12.73331 | 36955 ft | 506 kts | 151° |
| 2026-05-08 00:33 | 19.15231 | 12.77198 | 36951 ft | 506 kts | 151° |
| 2026-05-08 00:33 | 19.09129 | 12.81072 | 36947 ft | 507 kts | 151° |
| 2026-05-08 00:34 | 19.03034 | 12.84941 | 36948 ft | 508 kts | 152° |
| 2026-05-08 00:34 | 18.97039 | 12.89007 | 36934 ft | 509 kts | 141° |
| 2026-05-08 00:35 | 18.91831 | 12.94273 | 36940 ft | 511 kts | 138° |
| 2026-05-08 00:35 | 18.86638 | 12.99434 | 36954 ft | 510 kts | 138° |
| 2026-05-08 00:36 | 18.81397 | 13.04620 | 36949 ft | 510 kts | 138° |
| 2026-05-08 00:36 | 18.76177 | 13.09779 | 36949 ft | 510 kts | 138° |
| 2026-05-08 00:37 | 18.70928 | 13.14961 | 36949 ft | 510 kts | 137° |
| 2026-05-08 00:38 | 18.63100 | 13.22683 | 36963 ft | 509 kts | 137° |
| 2026-05-08 00:38 | 18.57895 | 13.27811 | 36966 ft | 509 kts | 137° |
| 2026-05-08 00:39 | 18.52668 | 13.32955 | 36972 ft | 509 kts | 137° |
| 2026-05-08 00:39 | 18.47417 | 13.38119 | 36967 ft | 511 kts | 137° |
| 2026-05-08 00:40 | 18.42184 | 13.43261 | 36968 ft | 510 kts | 137° |
| 2026-05-08 00:40 | 18.36939 | 13.48411 | 36970 ft | 510 kts | 137° |
| 2026-05-08 00:41 | 18.31713 | 13.53537 | 36973 ft | 509 kts | 137° |
| 2026-05-08 00:41 | 18.26497 | 13.58651 | 36974 ft | 509 kts | 137° |
| 2026-05-08 00:42 | 18.21267 | 13.63772 | 36978 ft | 508 kts | 137° |
| 2026-05-08 00:42 | 18.16030 | 13.68894 | 36965 ft | 509 kts | 137° |
| 2026-05-08 00:43 | 18.10779 | 13.74027 | 36964 ft | 510 kts | 137° |
| 2026-05-08 00:43 | 18.05520 | 13.79164 | 36966 ft | 509 kts | 137° |
| 2026-05-08 00:44 | 18.00297 | 13.84261 | 36959 ft | 509 kts | 137° |
| 2026-05-08 00:44 | 17.95075 | 13.89351 | 36959 ft | 509 kts | 137° |
| 2026-05-08 00:45 | 17.89810 | 13.94481 | 36952 ft | 509 kts | 137° |
| 2026-05-08 00:45 | 17.84586 | 13.99567 | 36944 ft | 508 kts | 137° |
| 2026-05-08 00:46 | 17.79347 | 14.04661 | 36935 ft | 508 kts | 137° |
| 2026-05-08 00:46 | 17.74102 | 14.09758 | 36942 ft | 507 kts | 137° |
| 2026-05-08 00:47 | 17.68877 | 14.14831 | 36946 ft | 507 kts | 137° |
| 2026-05-08 00:47 | 17.63679 | 14.19873 | 36945 ft | 508 kts | 137° |
| 2026-05-08 00:48 | 17.58433 | 14.24958 | 36948 ft | 508 kts | 137° |
| 2026-05-08 00:48 | 17.53167 | 14.30058 | 36939 ft | 508 kts | 137° |
| 2026-05-08 00:49 | 17.47932 | 14.35124 | 36944 ft | 509 kts | 137° |
| 2026-05-08 00:49 | 17.42662 | 14.40219 | 36940 ft | 509 kts | 137° |
| 2026-05-08 00:50 | 17.37412 | 14.45293 | 36940 ft | 509 kts | 137° |
| 2026-05-08 00:50 | 17.32155 | 14.50367 | 36938 ft | 508 kts | 137° |
| 2026-05-08 00:51 | 17.26930 | 14.55405 | 36931 ft | 507 kts | 137° |
| 2026-05-08 00:51 | 17.21664 | 14.60480 | 36933 ft | 507 kts | 137° |
| 2026-05-08 00:52 | 17.16449 | 14.65501 | 36932 ft | 508 kts | 137° |
| 2026-05-08 00:52 | 17.11203 | 14.70548 | 36927 ft | 508 kts | 137° |
| 2026-05-08 00:53 | 17.05928 | 14.75618 | 36923 ft | 509 kts | 137° |
| 2026-05-08 00:53 | 17.00664 | 14.80676 | 36929 ft | 508 kts | 137° |
| 2026-05-08 00:54 | 16.95402 | 14.85725 | 36919 ft | 508 kts | 137° |
| 2026-05-08 00:54 | 16.90131 | 14.90780 | 36915 ft | 508 kts | 137° |
| 2026-05-08 00:55 | 16.84891 | 14.95801 | 36916 ft | 507 kts | 137° |
| 2026-05-08 00:55 | 16.79632 | 15.00835 | 36916 ft | 508 kts | 136° |
| 2026-05-08 00:56 | 16.74375 | 15.05866 | 36908 ft | 508 kts | 137° |
| 2026-05-08 00:56 | 16.69092 | 15.10917 | 36922 ft | 507 kts | 136° |
| 2026-05-08 00:57 | 16.63881 | 15.15894 | 36921 ft | 507 kts | 136° |
| 2026-05-08 00:57 | 16.58629 | 15.20908 | 36915 ft | 507 kts | 136° |
| 2026-05-08 00:58 | 16.53365 | 15.25928 | 36905 ft | 508 kts | 136° |
| 2026-05-08 00:58 | 16.48077 | 15.30968 | 36888 ft | 508 kts | 136° |
| 2026-05-08 00:59 | 16.42838 | 15.35957 | 36921 ft | 508 kts | 136° |
| 2026-05-08 00:59 | 16.37530 | 15.41008 | 36909 ft | 507 kts | 136° |
| 2026-05-08 01:00 | 16.32277 | 15.46002 | 36912 ft | 507 kts | 136° |
| 2026-05-08 01:00 | 16.27012 | 15.51006 | 36903 ft | 508 kts | 136° |
| 2026-05-08 01:01 | 16.21735 | 15.56016 | 36904 ft | 507 kts | 136° |
| 2026-05-08 01:01 | 16.16455 | 15.61024 | 36913 ft | 508 kts | 136° |
| 2026-05-08 01:02 | 16.11173 | 15.66032 | 36902 ft | 508 kts | 136° |
| 2026-05-08 01:02 | 16.05928 | 15.70999 | 36917 ft | 507 kts | 137° |
| 2026-05-08 01:03 | 16.00633 | 15.76011 | 36903 ft | 507 kts | 136° |
| 2026-05-08 01:03 | 15.95361 | 15.80998 | 36882 ft | 508 kts | 136° |
| 2026-05-08 01:04 | 15.90102 | 15.85969 | 36891 ft | 507 kts | 136° |
| 2026-05-08 01:04 | 15.84805 | 15.90971 | 36881 ft | 508 kts | 136° |
| 2026-05-08 01:05 | 15.79511 | 15.95967 | 36894 ft | 508 kts | 136° |
| 2026-05-08 01:05 | 15.74226 | 16.00951 | 36891 ft | 508 kts | 136° |
| 2026-05-08 01:06 | 15.68928 | 16.05944 | 36879 ft | 509 kts | 136° |
| 2026-05-08 01:06 | 15.63655 | 16.10908 | 36893 ft | 508 kts | 136° |
| 2026-05-08 01:07 | 15.58371 | 16.15880 | 36901 ft | 508 kts | 136° |
| 2026-05-08 01:07 | 15.53066 | 16.20869 | 36897 ft | 509 kts | 136° |
| 2026-05-08 01:08 | 15.47785 | 16.25831 | 36912 ft | 507 kts | 136° |
| 2026-05-08 01:08 | 15.42512 | 16.30781 | 36901 ft | 508 kts | 136° |
| 2026-05-08 01:09 | 15.37194 | 16.35771 | 36897 ft | 509 kts | 136° |
| 2026-05-08 01:09 | 15.31884 | 16.40750 | 36889 ft | 508 kts | 136° |
| 2026-05-08 01:10 | 15.26603 | 16.45697 | 36901 ft | 508 kts | 136° |
| 2026-05-08 01:10 | 15.21270 | 16.50691 | 36896 ft | 509 kts | 136° |
| 2026-05-08 01:11 | 15.15958 | 16.55661 | 36899 ft | 507 kts | 136° |
| 2026-05-08 01:11 | 15.10657 | 16.60616 | 36893 ft | 508 kts | 136° |
| 2026-05-08 01:12 | 15.05356 | 16.65570 | 36888 ft | 507 kts | 136° |
| 2026-05-08 01:12 | 15.00067 | 16.70507 | 36881 ft | 508 kts | 136° |
| 2026-05-08 01:13 | 14.94754 | 16.75464 | 36893 ft | 509 kts | 137° |
| 2026-05-08 01:13 | 14.89451 | 16.80408 | 36886 ft | 508 kts | 136° |
| 2026-05-08 01:14 | 14.84163 | 16.85334 | 36872 ft | 508 kts | 136° |
| 2026-05-08 01:14 | 14.78826 | 16.90303 | 36878 ft | 508 kts | 136° |
| 2026-05-08 01:15 | 14.73508 | 16.95252 | 36877 ft | 509 kts | 136° |
| 2026-05-08 01:15 | 14.68210 | 17.00175 | 36888 ft | 508 kts | 136° |
| 2026-05-08 01:16 | 14.62888 | 17.05122 | 36881 ft | 509 kts | 136° |
| 2026-05-08 01:16 | 14.57545 | 17.10080 | 36880 ft | 510 kts | 136° |
| 2026-05-08 01:17 | 14.52215 | 17.15026 | 36887 ft | 509 kts | 136° |
| 2026-05-08 01:17 | 14.46887 | 17.19965 | 36896 ft | 509 kts | 136° |
| 2026-05-08 01:18 | 14.41592 | 17.24871 | 36887 ft | 509 kts | 136° |
| 2026-05-08 01:18 | 14.36261 | 17.29807 | 36881 ft | 509 kts | 136° |
| 2026-05-08 01:19 | 14.30914 | 17.34753 | 36881 ft | 509 kts | 136° |
| 2026-05-08 01:19 | 14.25581 | 17.39684 | 36879 ft | 509 kts | 136° |
| 2026-05-08 01:20 | 14.20222 | 17.44635 | 36874 ft | 509 kts | 136° |
| 2026-05-08 01:20 | 14.14871 | 17.49576 | 36875 ft | 509 kts | 136° |
| 2026-05-08 01:21 | 14.09533 | 17.54502 | 36885 ft | 509 kts | 136° |
| 2026-05-08 01:21 | 14.04214 | 17.59408 | 36894 ft | 510 kts | 136° |
| 2026-05-08 01:22 | 13.98862 | 17.64339 | 36888 ft | 509 kts | 136° |
| 2026-05-08 01:22 | 13.93558 | 17.69224 | 36880 ft | 508 kts | 137° |
| 2026-05-08 01:23 | 13.88199 | 17.74157 | 36876 ft | 509 kts | 137° |
| 2026-05-08 01:23 | 13.82872 | 17.79056 | 36881 ft | 509 kts | 137° |
| 2026-05-08 01:24 | 13.77556 | 17.83941 | 36883 ft | 510 kts | 136° |
| 2026-05-08 01:24 | 13.72206 | 17.88856 | 36880 ft | 509 kts | 137° |
| 2026-05-08 01:25 | 13.66853 | 17.93770 | 36875 ft | 508 kts | 137° |
| 2026-05-08 01:25 | 13.61524 | 17.98661 | 36882 ft | 509 kts | 136° |
| 2026-05-08 01:26 | 13.56169 | 18.03569 | 36884 ft | 508 kts | 136° |
| 2026-05-08 01:26 | 13.50849 | 18.08443 | 36890 ft | 507 kts | 136° |
| 2026-05-08 01:27 | 13.45528 | 18.13317 | 36893 ft | 509 kts | 137° |
| 2026-05-08 01:27 | 13.40169 | 18.18220 | 36889 ft | 509 kts | 136° |
| 2026-05-08 01:28 | 13.34833 | 18.23100 | 36885 ft | 507 kts | 136° |
| 2026-05-08 01:28 | 13.29519 | 18.27958 | 36883 ft | 506 kts | 136° |
| 2026-05-08 01:29 | 13.24177 | 18.32838 | 36882 ft | 507 kts | 136° |
| 2026-05-08 01:29 | 13.18836 | 18.37711 | 36882 ft | 508 kts | 136° |
| 2026-05-08 01:30 | 13.13527 | 18.42557 | 36890 ft | 506 kts | 136° |
| 2026-05-08 01:30 | 13.08193 | 18.47419 | 36888 ft | 506 kts | 136° |
| 2026-05-08 01:31 | 13.02840 | 18.52297 | 36887 ft | 506 kts | 136° |
| 2026-05-08 01:31 | 12.97524 | 18.57138 | 36878 ft | 506 kts | 136° |
| 2026-05-08 01:32 | 12.92212 | 18.61971 | 36871 ft | 505 kts | 136° |
| 2026-05-08 01:32 | 12.86903 | 18.66802 | 36865 ft | 505 kts | 136° |
| 2026-05-08 01:33 | 12.81567 | 18.71653 | 36879 ft | 505 kts | 137° |
| 2026-05-08 01:33 | 12.76281 | 18.76455 | 36879 ft | 505 kts | 137° |
| 2026-05-08 01:34 | 12.70946 | 18.81298 | 36891 ft | 504 kts | 136° |
| 2026-05-08 01:34 | 12.65650 | 18.86104 | 36887 ft | 504 kts | 136° |
| 2026-05-08 01:35 | 12.60372 | 18.90892 | 36898 ft | 503 kts | 136° |
| 2026-05-08 01:35 | 12.55045 | 18.95719 | 36888 ft | 504 kts | 136° |
| 2026-05-08 01:36 | 12.49727 | 19.00536 | 36900 ft | 503 kts | 137° |
| 2026-05-08 01:36 | 12.44430 | 19.05331 | 36917 ft | 503 kts | 136° |
| 2026-05-08 01:37 | 12.39131 | 19.10127 | 36903 ft | 504 kts | 136° |
| 2026-05-08 01:37 | 12.33799 | 19.14948 | 36910 ft | 503 kts | 136° |
| 2026-05-08 01:38 | 12.28523 | 19.19717 | 36910 ft | 502 kts | 137° |
| 2026-05-08 01:38 | 12.23234 | 19.24492 | 36909 ft | 500 kts | 136° |
| 2026-05-08 01:39 | 12.17924 | 19.29287 | 36910 ft | 501 kts | 137° |
| 2026-05-08 01:39 | 12.12659 | 19.34038 | 36916 ft | 501 kts | 136° |
| 2026-05-08 01:40 | 12.07348 | 19.38827 | 36907 ft | 501 kts | 136° |
| 2026-05-08 01:40 | 12.02065 | 19.43589 | 36923 ft | 501 kts | 137° |
| 2026-05-08 01:41 | 11.96763 | 19.48365 | 36929 ft | 501 kts | 137° |
| 2026-05-08 01:41 | 11.91456 | 19.53142 | 36917 ft | 501 kts | 137° |
| 2026-05-08 01:42 | 11.86188 | 19.57882 | 36907 ft | 499 kts | 136° |
| 2026-05-08 01:42 | 11.80921 | 19.62620 | 36905 ft | 499 kts | 137° |
| 2026-05-08 01:43 | 11.75675 | 19.67334 | 36900 ft | 499 kts | 137° |
| 2026-05-08 01:43 | 11.70396 | 19.72077 | 36912 ft | 499 kts | 137° |
| 2026-05-08 01:44 | 11.65134 | 19.76802 | 36889 ft | 498 kts | 137° |
| 2026-05-08 01:44 | 11.59862 | 19.81487 | 36888 ft | 498 kts | 137° |
| 2026-05-08 01:45 | 11.54572 | 19.86173 | 36896 ft | 497 kts | 137° |
| 2026-05-08 01:45 | 11.49295 | 19.90842 | 36881 ft | 499 kts | 137° |
| 2026-05-08 01:46 | 11.44008 | 19.95519 | 36897 ft | 495 kts | 137° |
| 2026-05-08 01:46 | 11.38741 | 20.00176 | 36913 ft | 496 kts | 137° |
| 2026-05-08 01:47 | 11.33478 | 20.04828 | 36906 ft | 495 kts | 137° |
| 2026-05-08 01:47 | 11.28194 | 20.09496 | 36899 ft | 493 kts | 137° |
| 2026-05-08 01:48 | 11.20316 | 20.16450 | 36896 ft | 495 kts | 137° |
| 2026-05-08 01:48 | 11.15064 | 20.21083 | 36889 ft | 496 kts | 137° |
| 2026-05-08 01:49 | 11.09762 | 20.25758 | 36878 ft | 496 kts | 137° |
| 2026-05-08 01:49 | 11.04531 | 20.30367 | 36882 ft | 493 kts | 137° |
| 2026-05-08 01:50 | 10.99274 | 20.34999 | 36879 ft | 493 kts | 137° |
| 2026-05-08 01:50 | 10.94006 | 20.39637 | 36886 ft | 492 kts | 137° |
| 2026-05-08 01:51 | 10.88774 | 20.44242 | 36879 ft | 492 kts | 137° |
| 2026-05-08 01:51 | 10.83546 | 20.48839 | 36875 ft | 493 kts | 137° |
| 2026-05-08 01:52 | 10.78257 | 20.53490 | 36872 ft | 493 kts | 138° |
| 2026-05-08 01:52 | 10.73015 | 20.58097 | 36878 ft | 492 kts | 138° |
| 2026-05-08 01:53 | 10.67784 | 20.62692 | 36883 ft | 491 kts | 137° |
| 2026-05-08 01:53 | 10.62582 | 20.67257 | 36885 ft | 491 kts | 138° |
| 2026-05-08 01:54 | 10.57324 | 20.71873 | 36886 ft | 492 kts | 138° |
| 2026-05-08 01:54 | 10.52066 | 20.76485 | 36889 ft | 492 kts | 138° |
| 2026-05-08 01:55 | 10.46836 | 20.81069 | 36884 ft | 492 kts | 138° |
| 2026-05-08 01:55 | 10.41587 | 20.85669 | 36880 ft | 490 kts | 138° |
| 2026-05-08 01:56 | 10.36365 | 20.90242 | 36879 ft | 490 kts | 138° |
| 2026-05-08 01:56 | 10.31137 | 20.94818 | 36880 ft | 489 kts | 138° |
| 2026-05-08 01:57 | 10.25912 | 20.99393 | 36881 ft | 491 kts | 138° |
| 2026-05-08 01:57 | 10.20655 | 21.03991 | 36881 ft | 490 kts | 138° |
| 2026-05-08 01:58 | 10.15455 | 21.08537 | 36883 ft | 491 kts | 138° |
| 2026-05-08 01:58 | 10.10201 | 21.13129 | 36887 ft | 491 kts | 138° |
| 2026-05-08 01:59 | 10.04955 | 21.17711 | 36880 ft | 490 kts | 138° |
| 2026-05-08 01:59 | 9.99747 | 21.22258 | 36878 ft | 491 kts | 138° |
| 2026-05-08 02:00 | 9.94479 | 21.26854 | 36877 ft | 491 kts | 138° |
| 2026-05-08 02:00 | 9.89246 | 21.31420 | 36881 ft | 489 kts | 138° |
| 2026-05-08 02:01 | 9.84022 | 21.35975 | 36882 ft | 489 kts | 138° |
| 2026-05-08 02:01 | 9.78804 | 21.40523 | 36887 ft | 489 kts | 138° |
| 2026-05-08 02:02 | 9.73580 | 21.45075 | 36889 ft | 491 kts | 138° |
| 2026-05-08 02:02 | 9.68316 | 21.49660 | 36890 ft | 490 kts | 138° |
| 2026-05-08 02:03 | 9.63100 | 21.54200 | 36895 ft | 490 kts | 138° |
| 2026-05-08 02:03 | 9.57889 | 21.58734 | 36896 ft | 491 kts | 138° |
| 2026-05-08 02:04 | 9.52612 | 21.63327 | 36898 ft | 490 kts | 137° |
| 2026-05-08 02:04 | 9.47448 | 21.67969 | 36902 ft | 491 kts | 137° |
| 2026-05-08 02:05 | 9.42269 | 21.72618 | 36904 ft | 491 kts | 137° |
| 2026-05-08 02:05 | 9.37098 | 21.77256 | 36904 ft | 490 kts | 137° |
| 2026-05-08 02:06 | 9.31933 | 21.81889 | 36906 ft | 490 kts | 138° |
| 2026-05-08 02:06 | 9.26757 | 21.86527 | 36909 ft | 490 kts | 137° |
| 2026-05-08 02:07 | 9.21574 | 21.91170 | 36911 ft | 490 kts | 137° |
| 2026-05-08 02:07 | 9.16401 | 21.95803 | 36911 ft | 491 kts | 138° |
| 2026-05-08 02:08 | 9.11236 | 22.00427 | 36915 ft | 490 kts | 137° |
| 2026-05-08 02:08 | 9.06081 | 22.05040 | 36928 ft | 488 kts | 137° |
| 2026-05-08 02:09 | 9.00910 | 22.09666 | 36923 ft | 490 kts | 138° |
| 2026-05-08 02:09 | 8.95742 | 22.14286 | 36931 ft | 489 kts | 137° |
| 2026-05-08 02:10 | 8.90596 | 22.18885 | 36952 ft | 489 kts | 138° |
| 2026-05-08 02:10 | 8.85429 | 22.23501 | 36946 ft | 490 kts | 138° |
| 2026-05-08 02:11 | 8.80251 | 22.28127 | 36942 ft | 489 kts | 138° |
| 2026-05-08 02:11 | 8.75094 | 22.32729 | 36958 ft | 489 kts | 138° |
| 2026-05-08 02:12 | 8.69891 | 22.37372 | 36958 ft | 489 kts | 138° |
| 2026-05-08 02:12 | 8.64735 | 22.41971 | 36955 ft | 488 kts | 138° |
| 2026-05-08 02:13 | 8.59617 | 22.46535 | 36973 ft | 487 kts | 138° |
| 2026-05-08 02:13 | 8.54460 | 22.51132 | 36971 ft | 488 kts | 138° |
| 2026-05-08 02:14 | 8.49284 | 22.55744 | 36985 ft | 488 kts | 138° |
| 2026-05-08 02:14 | 8.44154 | 22.60314 | 36993 ft | 488 kts | 138° |
| 2026-05-08 02:15 | 8.38985 | 22.64914 | 36999 ft | 487 kts | 138° |
| 2026-05-08 02:15 | 8.33818 | 22.69514 | 36997 ft | 487 kts | 138° |
| 2026-05-08 02:16 | 8.28693 | 22.74074 | 36998 ft | 488 kts | 138° |
| 2026-05-08 02:16 | 8.23528 | 22.78667 | 37002 ft | 488 kts | 138° |
| 2026-05-08 02:17 | 8.18352 | 22.83269 | 37000 ft | 488 kts | 139° |
| 2026-05-08 02:17 | 8.13525 | 22.88150 | 37007 ft | 486 kts | 130° |
| 2026-05-08 02:18 | 8.08975 | 22.93367 | 36994 ft | 488 kts | 131° |
| 2026-05-08 02:18 | 8.04425 | 22.98536 | 36993 ft | 489 kts | 131° |
| 2026-05-08 02:19 | 7.99849 | 23.03729 | 36989 ft | 487 kts | 131° |
| 2026-05-08 02:19 | 7.95285 | 23.08906 | 36994 ft | 487 kts | 131° |
| 2026-05-08 02:20 | 7.90742 | 23.14057 | 36982 ft | 487 kts | 131° |
| 2026-05-08 02:20 | 7.86159 | 23.19253 | 36978 ft | 487 kts | 131° |
| 2026-05-08 02:21 | 7.81611 | 23.24407 | 36974 ft | 489 kts | 131° |
| 2026-05-08 02:21 | 7.77039 | 23.29588 | 36970 ft | 488 kts | 131° |
| 2026-05-08 02:22 | 7.72466 | 23.34765 | 36983 ft | 487 kts | 132° |
| 2026-05-08 02:22 | 7.67886 | 23.39950 | 36970 ft | 487 kts | 132° |
| 2026-05-08 02:23 | 7.63331 | 23.45104 | 37000 ft | 487 kts | 132° |
| 2026-05-08 02:23 | 7.58767 | 23.50265 | 36984 ft | 487 kts | 132° |
| 2026-05-08 02:24 | 7.54186 | 23.55447 | 36985 ft | 488 kts | 132° |
| 2026-05-08 02:24 | 7.49620 | 23.60608 | 36970 ft | 487 kts | 132° |
| 2026-05-08 02:25 | 7.45064 | 23.65759 | 36985 ft | 488 kts | 133° |
| 2026-05-08 02:25 | 7.40495 | 23.70916 | 36974 ft | 485 kts | 132° |
| 2026-05-08 02:26 | 7.35919 | 23.76085 | 36975 ft | 488 kts | 133° |
| 2026-05-08 02:26 | 7.31354 | 23.81235 | 36973 ft | 487 kts | 132° |
| 2026-05-08 02:27 | 7.26785 | 23.86392 | 36976 ft | 486 kts | 133° |
| 2026-05-08 02:27 | 7.22247 | 23.91511 | 36973 ft | 486 kts | 133° |
| 2026-05-08 02:28 | 7.17686 | 23.96653 | 36985 ft | 487 kts | 133° |
| 2026-05-08 02:28 | 7.13140 | 24.01779 | 36988 ft | 486 kts | 133° |
| 2026-05-08 02:29 | 7.08550 | 24.06951 | 36967 ft | 484 kts | 133° |
| 2026-05-08 02:29 | 7.04019 | 24.12054 | 36956 ft | 484 kts | 133° |
| 2026-05-08 02:30 | 6.99451 | 24.17199 | 36947 ft | 484 kts | 133° |
| 2026-05-08 02:30 | 6.94912 | 24.22308 | 36933 ft | 485 kts | 133° |
| 2026-05-08 02:31 | 6.90357 | 24.27435 | 36947 ft | 485 kts | 133° |
| 2026-05-08 02:31 | 6.85765 | 24.32601 | 36947 ft | 486 kts | 133° |
| 2026-05-08 02:32 | 6.81215 | 24.37720 | 36948 ft | 485 kts | 133° |
| 2026-05-08 02:32 | 6.76664 | 24.42836 | 36950 ft | 485 kts | 133° |
| 2026-05-08 02:33 | 6.72123 | 24.47941 | 36945 ft | 486 kts | 133° |
| 2026-05-08 02:33 | 6.67570 | 24.53058 | 36929 ft | 484 kts | 133° |
| 2026-05-08 02:34 | 6.63000 | 24.58190 | 36928 ft | 486 kts | 133° |
| 2026-05-08 02:34 | 6.58408 | 24.63348 | 36921 ft | 486 kts | 133° |
| 2026-05-08 02:35 | 6.53826 | 24.68492 | 36918 ft | 486 kts | 133° |
| 2026-05-08 02:35 | 6.50807 | 24.71880 | 36930 ft | 486 kts | 133° |